sensor_id;sensor_type;location;lat;lon;timestamp;pressure;altitude;pressure_sealevel;temperature;humidity
45621;BME280;31345;51.522;10.702;2023-04-23T00:00:37;98219.91;;;14.36;92.47
45621;BME280;31345;51.522;10.702;2023-04-23T00:03:13;98222.03;;;14.33;94.76
45621;BME280;31345;51.522;10.702;2023-04-23T00:05:46;98225.81;;;14.20;96.77
45621;BME280;31345;51.522;10.702;2023-04-23T00:08:17;98219.25;;;14.06;98.41
45621;BME280;31345;51.522;10.702;2023-04-23T00:10:45;98220.28;;;13.85;98.01
45621;BME280;31345;51.522;10.702;2023-04-23T00:13:13;98215.28;;;13.92;97.49
45621;BME280;31345;51.522;10.702;2023-04-23T00:15:43;98227.31;;;13.95;97.51
45621;BME280;31345;51.522;10.702;2023-04-23T00:18:15;98218.44;;;13.96;97.62
45621;BME280;31345;51.522;10.702;2023-04-23T00:20:43;98221.50;;;13.91;98.84
45621;BME280;31345;51.522;10.702;2023-04-23T00:23:15;98216.13;;;13.83;100.00
45621;BME280;31345;51.522;10.702;2023-04-23T00:25:43;98225.03;;;13.72;100.00
45621;BME280;31345;51.522;10.702;2023-04-23T00:28:11;98218.00;;;13.53;100.00
45621;BME280;31345;51.522;10.702;2023-04-23T00:30:45;98218.97;;;13.61;100.00
45621;BME280;31345;51.522;10.702;2023-04-23T00:33:12;98213.31;;;13.36;100.00
45621;BME280;31345;51.522;10.702;2023-04-23T00:35:45;98221.59;;;13.52;100.00
45621;BME280;31345;51.522;10.702;2023-04-23T00:38:18;98222.31;;;13.34;100.00
45621;BME280;31345;51.522;10.702;2023-04-23T00:40:51;98219.16;;;13.10;100.00
45621;BME280;31345;51.522;10.702;2023-04-23T00:43:19;98216.69;;;13.09;100.00
45621;BME280;31345;51.522;10.702;2023-04-23T00:45:48;98216.41;;;13.02;100.00
45621;BME280;31345;51.522;10.702;2023-04-23T00:48:15;98209.34;;;13.13;100.00
45621;BME280;31345;51.522;10.702;2023-04-23T00:50:43;98212.69;;;13.05;100.00
45621;BME280;31345;51.522;10.702;2023-04-23T00:53:15;98207.97;;;13.08;100.00
45621;BME280;31345;51.522;10.702;2023-04-23T00:55:43;98206.59;;;13.04;100.00
45621;BME280;31345;51.522;10.702;2023-04-23T00:58:11;98203.97;;;12.94;100.00
45621;BME280;31345;51.522;10.702;2023-04-23T01:00:42;98209.47;;;12.91;100.00
45621;BME280;31345;51.522;10.702;2023-04-23T01:03:12;98206.03;;;13.10;100.00
45621;BME280;31345;51.522;10.702;2023-04-23T01:05:40;98204.78;;;13.24;100.00
45621;BME280;31345;51.522;10.702;2023-04-23T01:08:13;98208.22;;;13.15;100.00
45621;BME280;31345;51.522;10.702;2023-04-23T01:10:47;98199.56;;;13.15;100.00
45621;BME280;31345;51.522;10.702;2023-04-23T01:13:19;98197.31;;;13.20;100.00
45621;BME280;31345;51.522;10.702;2023-04-23T01:15:48;98199.09;;;13.29;100.00
45621;BME280;31345;51.522;10.702;2023-04-23T01:18:17;98203.66;;;13.37;100.00
45621;BME280;31345;51.522;10.702;2023-04-23T01:20:45;98197.72;;;13.25;100.00
45621;BME280;31345;51.522;10.702;2023-04-23T01:23:19;98203.41;;;13.10;100.00
45621;BME280;31345;51.522;10.702;2023-04-23T01:25:47;98194.72;;;13.10;100.00
45621;BME280;31345;51.522;10.702;2023-04-23T01:28:20;98201.47;;;13.13;100.00
45621;BME280;31345;51.522;10.702;2023-04-23T01:30:48;98205.19;;;13.30;100.00
45621;BME280;31345;51.522;10.702;2023-04-23T01:33:23;98214.44;;;13.24;100.00
45621;BME280;31345;51.522;10.702;2023-04-23T01:35:57;98213.91;;;13.20;100.00
45621;BME280;31345;51.522;10.702;2023-04-23T01:38:29;98212.41;;;13.08;100.00
45621;BME280;31345;51.522;10.702;2023-04-23T01:41:02;98217.34;;;13.01;100.00
45621;BME280;31345;51.522;10.702;2023-04-23T01:43:30;98211.16;;;13.02;100.00
45621;BME280;31345;51.522;10.702;2023-04-23T01:46:03;98208.81;;;12.99;100.00
45621;BME280;31345;51.522;10.702;2023-04-23T01:48:31;98215.72;;;13.00;100.00
45621;BME280;31345;51.522;10.702;2023-04-23T01:51:04;98215.56;;;13.02;100.00
45621;BME280;31345;51.522;10.702;2023-04-23T01:53:38;98213.66;;;12.84;100.00
45621;BME280;31345;51.522;10.702;2023-04-23T01:56:14;98209.47;;;12.81;100.00
45621;BME280;31345;51.522;10.702;2023-04-23T01:58:47;98204.09;;;12.83;100.00
45621;BME280;31345;51.522;10.702;2023-04-23T02:01:15;98201.47;;;12.93;100.00
45621;BME280;31345;51.522;10.702;2023-04-23T02:03:48;98199.69;;;12.93;100.00
45621;BME280;31345;51.522;10.702;2023-04-23T02:06:16;98198.59;;;12.76;100.00
45621;BME280;31345;51.522;10.702;2023-04-23T02:08:50;98194.44;;;12.83;100.00
45621;BME280;31345;51.522;10.702;2023-04-23T02:11:23;98199.16;;;12.90;100.00
45621;BME280;31345;51.522;10.702;2023-04-23T02:13:55;98200.09;;;12.98;100.00
45621;BME280;31345;51.522;10.702;2023-04-23T02:16:23;98203.56;;;12.99;100.00
45621;BME280;31345;51.522;10.702;2023-04-23T02:18:56;98203.00;;;13.05;100.00
45621;BME280;31345;51.522;10.702;2023-04-23T02:21:27;98210.84;;;13.15;100.00
45621;BME280;31345;51.522;10.702;2023-04-23T02:23:56;98210.72;;;13.17;100.00
45621;BME280;31345;51.522;10.702;2023-04-23T02:26:23;98208.09;;;12.97;100.00
45621;BME280;31345;51.522;10.702;2023-04-23T02:28:56;98201.91;;;12.88;100.00
45621;BME280;31345;51.522;10.702;2023-04-23T02:31:29;98202.19;;;12.95;100.00
45621;BME280;31345;51.522;10.702;2023-04-23T02:34:02;98208.41;;;12.74;100.00
45621;BME280;31345;51.522;10.702;2023-04-23T02:36:34;98203.97;;;12.75;100.00
45621;BME280;31345;51.522;10.702;2023-04-23T02:39:04;98202.03;;;12.77;100.00
45621;BME280;31345;51.522;10.702;2023-04-23T02:41:37;98203.69;;;12.78;100.00
45621;BME280;31345;51.522;10.702;2023-04-23T02:44:04;98200.41;;;12.85;100.00
45621;BME280;31345;51.522;10.702;2023-04-23T02:46:37;98206.44;;;12.76;100.00
45621;BME280;31345;51.522;10.702;2023-04-23T02:49:10;98214.56;;;12.63;100.00
45621;BME280;31345;51.522;10.702;2023-04-23T02:51:42;98203.13;;;12.44;100.00
45621;BME280;31345;51.522;10.702;2023-04-23T02:54:12;98206.28;;;12.48;100.00
45621;BME280;31345;51.522;10.702;2023-04-23T02:56:45;98205.59;;;12.36;100.00
45621;BME280;31345;51.522;10.702;2023-04-23T02:59:18;98206.41;;;12.46;100.00
45621;BME280;31345;51.522;10.702;2023-04-23T03:01:51;98206.38;;;12.37;100.00
45621;BME280;31345;51.522;10.702;2023-04-23T03:04:19;98201.84;;;12.39;100.00
45621;BME280;31345;51.522;10.702;2023-04-23T03:06:53;98203.91;;;12.35;100.00
45621;BME280;31345;51.522;10.702;2023-04-23T03:09:22;98199.50;;;12.36;100.00
45621;BME280;31345;51.522;10.702;2023-04-23T03:11:50;98197.97;;;12.33;100.00
45621;BME280;31345;51.522;10.702;2023-04-23T03:14:17;98197.94;;;12.23;100.00
45621;BME280;31345;51.522;10.702;2023-04-23T03:16:45;98205.09;;;12.21;100.00
45621;BME280;31345;51.522;10.702;2023-04-23T03:19:13;98206.94;;;12.30;100.00
45621;BME280;31345;51.522;10.702;2023-04-23T03:21:41;98201.03;;;12.48;100.00
45621;BME280;31345;51.522;10.702;2023-04-23T03:24:11;98206.84;;;12.52;100.00
45621;BME280;31345;51.522;10.702;2023-04-23T03:26:46;98214.28;;;12.46;100.00
45621;BME280;31345;51.522;10.702;2023-04-23T03:29:14;98209.19;;;12.55;100.00
45621;BME280;31345;51.522;10.702;2023-04-23T03:31:42;98207.13;;;12.49;100.00
45621;BME280;31345;51.522;10.702;2023-04-23T03:34:10;98208.63;;;12.51;100.00
45621;BME280;31345;51.522;10.702;2023-04-23T03:36:43;98204.50;;;12.49;100.00
45621;BME280;31345;51.522;10.702;2023-04-23T03:39:14;98210.41;;;12.41;100.00
45621;BME280;31345;51.522;10.702;2023-04-23T03:41:54;98208.09;;;12.48;100.00
45621;BME280;31345;51.522;10.702;2023-04-23T03:44:27;98204.47;;;12.39;100.00
45621;BME280;31345;51.522;10.702;2023-04-23T03:46:59;98200.34;;;12.46;100.00
45621;BME280;31345;51.522;10.702;2023-04-23T03:49:27;98204.06;;;12.53;100.00
45621;BME280;31345;51.522;10.702;2023-04-23T03:51:55;98202.28;;;12.54;100.00
45621;BME280;31345;51.522;10.702;2023-04-23T03:54:23;98202.53;;;12.41;100.00
45621;BME280;31345;51.522;10.702;2023-04-23T03:57:05;98210.56;;;12.49;100.00
45621;BME280;31345;51.522;10.702;2023-04-23T03:59:37;98214.16;;;12.58;100.00
45621;BME280;31345;51.522;10.702;2023-04-23T04:02:09;98211.94;;;12.53;100.00
45621;BME280;31345;51.522;10.702;2023-04-23T04:04:42;98214.97;;;12.49;100.00
45621;BME280;31345;51.522;10.702;2023-04-23T04:07:16;98218.13;;;12.42;100.00
45621;BME280;31345;51.522;10.702;2023-04-23T04:09:44;98207.75;;;12.31;100.00
45621;BME280;31345;51.522;10.702;2023-04-23T04:12:18;98212.59;;;12.36;100.00
45621;BME280;31345;51.522;10.702;2023-04-23T04:14:46;98218.09;;;12.23;100.00
45621;BME280;31345;51.522;10.702;2023-04-23T04:17:13;98221.38;;;12.15;100.00
45621;BME280;31345;51.522;10.702;2023-04-23T04:19:46;98222.63;;;12.20;100.00
45621;BME280;31345;51.522;10.702;2023-04-23T04:22:19;98214.97;;;12.39;100.00
45621;BME280;31345;51.522;10.702;2023-04-23T04:24:51;98218.13;;;12.42;100.00
45621;BME280;31345;51.522;10.702;2023-04-23T04:27:20;98221.88;;;12.50;100.00
45621;BME280;31345;51.522;10.702;2023-04-23T04:29:48;98219.50;;;12.37;100.00
45621;BME280;31345;51.522;10.702;2023-04-23T04:32:21;98220.22;;;12.39;100.00
45621;BME280;31345;51.522;10.702;2023-04-23T04:34:54;98225.28;;;12.30;100.00
45621;BME280;31345;51.522;10.702;2023-04-23T04:37:22;98220.22;;;12.39;100.00
45621;BME280;31345;51.522;10.702;2023-04-23T04:39:50;98225.44;;;12.39;100.00
45621;BME280;31345;51.522;10.702;2023-04-23T04:42:17;98221.56;;;12.33;100.00
45621;BME280;31345;51.522;10.702;2023-04-23T04:44:46;98232.72;;;12.35;100.00
45621;BME280;31345;51.522;10.702;2023-04-23T04:47:14;98229.31;;;12.34;100.00
45621;BME280;31345;51.522;10.702;2023-04-23T04:49:47;98229.47;;;12.43;100.00
45621;BME280;31345;51.522;10.702;2023-04-23T04:52:14;98239.56;;;12.48;100.00
45621;BME280;31345;51.522;10.702;2023-04-23T04:54:47;98252.91;;;12.34;100.00
45621;BME280;31345;51.522;10.702;2023-04-23T04:57:19;98262.97;;;12.29;100.00
45621;BME280;31345;51.522;10.702;2023-04-23T04:59:49;98264.41;;;12.12;100.00
45621;BME280;31345;51.522;10.702;2023-04-23T05:02:22;98267.22;;;11.99;100.00
45621;BME280;31345;51.522;10.702;2023-04-23T05:04:54;98262.41;;;12.04;100.00
45621;BME280;31345;51.522;10.702;2023-04-23T05:07:22;98269.63;;;12.12;100.00
45621;BME280;31345;51.522;10.702;2023-04-23T05:09:54;98274.16;;;12.10;100.00
45621;BME280;31345;51.522;10.702;2023-04-23T05:12:27;98274.88;;;11.91;100.00
45621;BME280;31345;51.522;10.702;2023-04-23T05:14:56;98276.03;;;11.77;100.00
45621;BME280;31345;51.522;10.702;2023-04-23T05:17:23;98285.56;;;11.78;100.00
45621;BME280;31345;51.522;10.702;2023-04-23T05:19:56;98274.34;;;11.66;100.00
45621;BME280;31345;51.522;10.702;2023-04-23T05:22:29;98273.88;;;11.82;100.00
45621;BME280;31345;51.522;10.702;2023-04-23T05:24:57;98287.56;;;11.86;100.00
45621;BME280;31345;51.522;10.702;2023-04-23T05:27:29;98290.72;;;11.89;100.00
45621;BME280;31345;51.522;10.702;2023-04-23T05:30:05;98290.47;;;11.71;100.00
45621;BME280;31345;51.522;10.702;2023-04-23T05:32:38;98291.19;;;11.52;100.00
45621;BME280;31345;51.522;10.702;2023-04-23T05:35:10;98289.94;;;11.67;100.00
45621;BME280;31345;51.522;10.702;2023-04-23T05:37:38;98298.56;;;11.47;100.00
45621;BME280;31345;51.522;10.702;2023-04-23T05:40:06;98304.34;;;11.40;100.00
45621;BME280;31345;51.522;10.702;2023-04-23T05:42:39;98298.16;;;11.63;100.00
45621;BME280;31345;51.522;10.702;2023-04-23T05:45:14;98302.16;;;11.46;100.00
45621;BME280;31345;51.522;10.702;2023-04-23T05:47:46;98300.44;;;11.56;100.00
45621;BME280;31345;51.522;10.702;2023-04-23T05:50:19;98309.97;;;11.57;100.00
45621;BME280;31345;51.522;10.702;2023-04-23T05:52:47;98309.50;;;11.73;100.00
45621;BME280;31345;51.522;10.702;2023-04-23T05:55:14;98314.50;;;11.76;100.00
45621;BME280;31345;51.522;10.702;2023-04-23T05:57:48;98305.16;;;11.83;100.00
45621;BME280;31345;51.522;10.702;2023-04-23T06:00:22;98309.56;;;11.83;100.00
45621;BME280;31345;51.522;10.702;2023-04-23T06:02:50;98308.44;;;11.76;100.00
45621;BME280;31345;51.522;10.702;2023-04-23T06:05:17;98307.28;;;11.68;100.00
45621;BME280;31345;51.522;10.702;2023-04-23T06:07:50;98310.78;;;11.79;100.00
45621;BME280;31345;51.522;10.702;2023-04-23T06:10:22;98307.28;;;11.90;100.00
45621;BME280;31345;51.522;10.702;2023-04-23T06:15:32;98317.69;;;11.80;100.00
45621;BME280;31345;51.522;10.702;2023-04-23T06:18:00;98316.72;;;11.81;100.00
45621;BME280;31345;51.522;10.702;2023-04-23T06:20:32;98317.31;;;12.06;100.00
45621;BME280;31345;51.522;10.702;2023-04-23T06:23:00;98312.97;;;11.95;100.00
45621;BME280;31345;51.522;10.702;2023-04-23T06:28:44;98314.13;;;11.81;100.00
45621;BME280;31345;51.522;10.702;2023-04-23T06:31:35;98317.81;;;11.78;100.00
45621;BME280;31345;51.522;10.702;2023-04-23T06:34:03;98316.34;;;11.86;100.00
45621;BME280;31345;51.522;10.702;2023-04-23T06:36:35;98313.88;;;11.84;100.00
45621;BME280;31345;51.522;10.702;2023-04-23T06:39:07;98321.41;;;11.99;100.00
45621;BME280;31345;51.522;10.702;2023-04-23T06:41:42;98318.97;;;11.86;100.00
45621;BME280;31345;51.522;10.702;2023-04-23T06:44:35;98317.28;;;11.85;100.00
45621;BME280;31345;51.522;10.702;2023-04-23T06:47:06;98312.84;;;11.97;100.00
45621;BME280;31345;51.522;10.702;2023-04-23T06:49:50;98319.81;;;12.07;100.00
45621;BME280;31345;51.522;10.702;2023-04-23T06:52:19;98321.75;;;12.05;100.00
45621;BME280;31345;51.522;10.702;2023-04-23T06:54:55;98333.09;;;11.94;100.00
45621;BME280;31345;51.522;10.702;2023-04-23T06:57:25;98336.59;;;11.83;100.00
45621;BME280;31345;51.522;10.702;2023-04-23T06:59:53;98329.69;;;11.82;100.00
45621;BME280;31345;51.522;10.702;2023-04-23T07:02:29;98320.31;;;11.80;100.00
45621;BME280;31345;51.522;10.702;2023-04-23T07:05:02;98319.75;;;11.98;100.00
45621;BME280;31345;51.522;10.702;2023-04-23T07:07:30;98325.28;;;12.26;100.00
45621;BME280;31345;51.522;10.702;2023-04-23T07:09:58;98319.66;;;12.30;100.00
45621;BME280;31345;51.522;10.702;2023-04-23T07:12:35;98321.88;;;12.45;100.00
45621;BME280;31345;51.522;10.702;2023-04-23T07:15:15;98307.44;;;12.51;100.00
45621;BME280;31345;51.522;10.702;2023-04-23T07:17:59;98305.41;;;12.64;100.00
45621;BME280;31345;51.522;10.702;2023-04-23T07:20:51;98309.97;;;12.72;100.00
45621;BME280;31345;51.522;10.702;2023-04-23T07:23:23;98323.13;;;12.82;100.00
45621;BME280;31345;51.522;10.702;2023-04-23T07:25:54;98318.03;;;13.00;100.00
45621;BME280;31345;51.522;10.702;2023-04-23T07:28:33;98312.94;;;13.18;100.00
45621;BME280;31345;51.522;10.702;2023-04-23T07:31:36;98315.56;;;13.48;100.00
45621;BME280;31345;51.522;10.702;2023-04-23T07:34:36;98320.00;;;13.57;100.00
45621;BME280;31345;51.522;10.702;2023-04-23T07:37:12;98323.72;;;13.74;100.00
45621;BME280;31345;51.522;10.702;2023-04-23T07:39:41;98319.13;;;14.06;100.00
45621;BME280;31345;51.522;10.702;2023-04-23T07:42:28;98314.22;;;14.21;100.00
45621;BME280;31345;51.522;10.702;2023-04-23T07:45:05;98312.78;;;14.37;100.00
45621;BME280;31345;51.522;10.702;2023-04-23T07:48:08;98319.13;;;14.44;100.00
45621;BME280;31345;51.522;10.702;2023-04-23T07:50:38;98315.31;;;14.57;100.00
45621;BME280;31345;51.522;10.702;2023-04-23T07:53:06;98308.97;;;14.77;100.00
45621;BME280;31345;51.522;10.702;2023-04-23T07:55:34;98311.25;;;14.44;100.00
45621;BME280;31345;51.522;10.702;2023-04-23T07:58:02;98312.78;;;14.65;100.00
45621;BME280;31345;51.522;10.702;2023-04-23T08:00:32;98307.53;;;14.65;100.00
45621;BME280;31345;51.522;10.702;2023-04-23T08:03:01;98308.50;;;14.92;100.00
45621;BME280;31345;51.522;10.702;2023-04-23T08:05:33;98310.41;;;15.00;100.00
45621;BME280;31345;51.522;10.702;2023-04-23T08:08:10;98320.03;;;14.53;100.00
45621;BME280;31345;51.522;10.702;2023-04-23T08:10:44;98320.53;;;14.38;100.00
45621;BME280;31345;51.522;10.702;2023-04-23T08:13:11;98324.47;;;14.24;100.00
45621;BME280;31345;51.522;10.702;2023-04-23T08:15:41;98321.84;;;14.24;100.00
45621;BME280;31345;51.522;10.702;2023-04-23T08:18:14;98318.19;;;14.35;100.00
45621;BME280;31345;51.522;10.702;2023-04-23T08:20:41;98307.88;;;14.52;97.98
45621;BME280;31345;51.522;10.702;2023-04-23T08:23:10;98316.78;;;14.69;100.00
45621;BME280;31345;51.522;10.702;2023-04-23T08:25:43;98310.81;;;14.67;98.71
45621;BME280;31345;51.522;10.702;2023-04-23T08:28:10;98308.75;;;14.99;98.65
45621;BME280;31345;51.522;10.702;2023-04-23T08:30:38;98300.00;;;14.98;96.71
45621;BME280;31345;51.522;10.702;2023-04-23T08:33:11;98302.66;;;15.35;96.35
45621;BME280;31345;51.522;10.702;2023-04-23T08:35:39;98295.72;;;15.34;93.03
45621;BME280;31345;51.522;10.702;2023-04-23T08:38:06;98306.94;;;15.54;98.72
45621;BME280;31345;51.522;10.702;2023-04-23T08:40:41;98300.41;;;15.40;91.39
45621;BME280;31345;51.522;10.702;2023-04-23T08:43:16;98295.81;;;15.42;91.77
45621;BME280;31345;51.522;10.702;2023-04-23T08:45:46;98283.53;;;15.51;88.80
45621;BME280;31345;51.522;10.702;2023-04-23T08:48:20;98290.28;;;15.53;89.09
45621;BME280;31345;51.522;10.702;2023-04-23T08:50:48;98292.84;;;15.90;95.05
45621;BME280;31345;51.522;10.702;2023-04-23T08:53:24;98301.16;;;16.03;88.46
45621;BME280;31345;51.522;10.702;2023-04-23T08:55:54;98299.56;;;16.11;87.24
45621;BME280;31345;51.522;10.702;2023-04-23T08:58:22;98305.03;;;15.64;88.71
45621;BME280;31345;51.522;10.702;2023-04-23T09:00:53;98301.38;;;15.84;86.92
45621;BME280;31345;51.522;10.702;2023-04-23T09:03:28;98299.81;;;15.73;88.51
45621;BME280;31345;51.522;10.702;2023-04-23T09:06:01;98302.44;;;15.99;86.97
45621;BME280;31345;51.522;10.702;2023-04-23T09:08:29;98310.28;;;16.17;86.72
45621;BME280;31345;51.522;10.702;2023-04-23T09:11:00;98308.69;;;16.25;86.16
45621;BME280;31345;51.522;10.702;2023-04-23T09:13:34;98315.75;;;16.42;86.17
45621;BME280;31345;51.522;10.702;2023-04-23T09:16:07;98316.28;;;16.54;88.08
45621;BME280;31345;51.522;10.702;2023-04-23T09:18:35;98313.81;;;16.61;84.32
45621;BME280;31345;51.522;10.702;2023-04-23T09:21:03;98313.53;;;16.72;82.15
45621;BME280;31345;51.522;10.702;2023-04-23T09:23:32;98315.31;;;16.64;83.13
45621;BME280;31345;51.522;10.702;2023-04-23T09:26:07;98313.41;;;16.82;83.29
45621;BME280;31345;51.522;10.702;2023-04-23T09:28:35;98304.19;;;17.03;81.87
45621;BME280;31345;51.522;10.702;2023-04-23T09:31:04;98295.31;;;17.13;77.69
45621;BME280;31345;51.522;10.702;2023-04-23T09:33:34;98295.00;;;17.41;79.39
45621;BME280;31345;51.522;10.702;2023-04-23T09:36:09;98281.63;;;17.26;73.02
45621;BME280;31345;51.522;10.702;2023-04-23T09:38:42;98288.91;;;17.57;79.45
45621;BME280;31345;51.522;10.702;2023-04-23T09:41:23;98290.41;;;17.76;75.35
45621;BME280;31345;51.522;10.702;2023-04-23T09:43:55;98284.78;;;17.54;75.38
45621;BME280;31345;51.522;10.702;2023-04-23T09:46:34;98286.59;;;17.87;74.65
45621;BME280;31345;51.522;10.702;2023-04-23T09:49:02;98280.19;;;17.48;75.97
45621;BME280;31345;51.522;10.702;2023-04-23T09:51:38;98271.88;;;17.18;74.76
45621;BME280;31345;51.522;10.702;2023-04-23T09:54:12;98265.94;;;17.66;76.65
45621;BME280;31345;51.522;10.702;2023-04-23T09:56:42;98268.91;;;17.71;74.17
45621;BME280;31345;51.522;10.702;2023-04-23T09:59:21;98262.75;;;17.95;71.27
45621;BME280;31345;51.522;10.702;2023-04-23T10:01:49;98270.31;;;18.15;73.70
45621;BME280;31345;51.522;10.702;2023-04-23T10:04:23;98262.44;;;18.38;71.10
45621;BME280;31345;51.522;10.702;2023-04-23T10:06:57;98265.16;;;18.22;71.80
45621;BME280;31345;51.522;10.702;2023-04-23T10:09:26;98260.50;;;18.32;61.05
45621;BME280;31345;51.522;10.702;2023-04-23T10:12:01;98260.03;;;18.20;63.90
45621;BME280;31345;51.522;10.702;2023-04-23T10:14:29;98260.28;;;17.94;66.31
45621;BME280;31345;51.522;10.702;2023-04-23T10:17:03;98258.09;;;18.06;68.62
45621;BME280;31345;51.522;10.702;2023-04-23T10:19:31;98254.56;;;18.22;69.54
45621;BME280;31345;51.522;10.702;2023-04-23T10:22:04;98257.84;;;18.24;64.75
45621;BME280;31345;51.522;10.702;2023-04-23T10:24:38;98266.22;;;18.04;65.06
45621;BME280;31345;51.522;10.702;2023-04-23T10:27:10;98260.84;;;18.29;65.70
45621;BME280;31345;51.522;10.702;2023-04-23T10:29:38;98267.19;;;18.51;66.83
45621;BME280;31345;51.522;10.702;2023-04-23T10:32:11;98268.84;;;18.12;66.17
45621;BME280;31345;51.522;10.702;2023-04-23T10:34:40;98272.66;;;18.01;60.40
45621;BME280;31345;51.522;10.702;2023-04-23T10:37:09;98275.44;;;18.17;66.49
45621;BME280;31345;51.522;10.702;2023-04-23T10:39:38;98270.00;;;18.58;63.44
45621;BME280;31345;51.522;10.702;2023-04-23T10:42:15;98266.75;;;17.91;64.37
45621;BME280;31345;51.522;10.702;2023-04-23T10:44:49;98268.94;;;17.54;63.93
45621;BME280;31345;51.522;10.702;2023-04-23T10:47:21;98269.41;;;17.33;65.10
45621;BME280;31345;51.522;10.702;2023-04-23T10:49:54;98264.13;;;17.49;67.09
45621;BME280;31345;51.522;10.702;2023-04-23T10:52:22;98258.69;;;17.59;65.27
45621;BME280;31345;51.522;10.702;2023-04-23T10:54:57;98261.81;;;18.36;66.73
45621;BME280;31345;51.522;10.702;2023-04-23T10:57:55;98244.88;;;18.46;62.67
45621;BME280;31345;51.522;10.702;2023-04-23T11:00:23;98250.03;;;17.91;63.91
45621;BME280;31345;51.522;10.702;2023-04-23T11:02:56;98244.09;;;17.97;58.16
45621;BME280;31345;51.522;10.702;2023-04-23T11:05:29;98238.69;;;18.22;60.23
45621;BME280;31345;51.522;10.702;2023-04-23T11:08:04;98243.06;;;18.38;65.27
45621;BME280;31345;51.522;10.702;2023-04-23T11:10:32;98248.31;;;18.86;69.56
45621;BME280;31345;51.522;10.702;2023-04-23T11:13:26;98242.03;;;19.11;67.00
45621;BME280;31345;51.522;10.702;2023-04-23T11:16:12;98238.84;;;19.15;65.39
45621;BME280;31345;51.522;10.702;2023-04-23T11:18:56;98231.28;;;19.66;62.38
45621;BME280;31345;51.522;10.702;2023-04-23T11:24:31;98230.63;;;19.49;59.67
45621;BME280;31345;51.522;10.702;2023-04-23T11:26:59;98226.81;;;19.66;62.21
45621;BME280;31345;51.522;10.702;2023-04-23T11:29:35;98234.97;;;19.80;58.84
45621;BME280;31345;51.522;10.702;2023-04-23T11:32:09;98226.09;;;19.88;53.30
45621;BME280;31345;51.522;10.702;2023-04-23T11:34:39;98214.59;;;20.48;54.32
45621;BME280;31345;51.522;10.702;2023-04-23T11:37:14;98222.22;;;20.36;55.62
45621;BME280;31345;51.522;10.702;2023-04-23T11:39:43;98223.28;;;20.56;57.16
45621;BME280;31345;51.522;10.702;2023-04-23T11:42:11;98221.25;;;20.74;55.97
45621;BME280;31345;51.522;10.702;2023-04-23T11:44:45;98217.03;;;20.27;56.15
45621;BME280;31345;51.522;10.702;2023-04-23T11:47:18;98216.59;;;19.78;56.46
45621;BME280;31345;51.522;10.702;2023-04-23T11:49:47;98216.06;;;19.45;52.75
45621;BME280;31345;51.522;10.702;2023-04-23T11:52:20;98210.38;;;19.48;54.47
45621;BME280;31345;51.522;10.702;2023-04-23T11:54:52;98205.59;;;19.28;57.92
45621;BME280;31345;51.522;10.702;2023-04-23T11:57:20;98211.22;;;19.10;56.44
45621;BME280;31345;51.522;10.702;2023-04-23T11:59:54;98203.00;;;19.04;55.38
45621;BME280;31345;51.522;10.702;2023-04-23T12:02:22;98199.78;;;19.33;60.89
45621;BME280;31345;51.522;10.702;2023-04-23T12:04:50;98191.06;;;19.24;56.10
45621;BME280;31345;51.522;10.702;2023-04-23T12:07:30;98199.97;;;19.46;58.49
45621;BME280;31345;51.522;10.702;2023-04-23T12:09:58;98189.66;;;19.51;57.65
45621;BME280;31345;51.522;10.702;2023-04-23T12:12:32;98203.16;;;19.03;59.79
45621;BME280;31345;51.522;10.702;2023-04-23T12:15:05;98194.75;;;18.76;60.32
45621;BME280;31345;51.522;10.702;2023-04-23T12:17:38;98197.13;;;18.71;60.91
45621;BME280;31345;51.522;10.702;2023-04-23T12:20:09;98192.16;;;18.68;57.88
45621;BME280;31345;51.522;10.702;2023-04-23T12:22:38;98187.09;;;19.04;62.34
45621;BME280;31345;51.522;10.702;2023-04-23T12:25:06;98191.91;;;19.63;57.73
45621;BME280;31345;51.522;10.702;2023-04-23T12:27:40;98188.94;;;20.18;60.53
45621;BME280;31345;51.522;10.702;2023-04-23T12:30:10;98180.81;;;20.04;52.51
45621;BME280;31345;51.522;10.702;2023-04-23T12:32:43;98177.59;;;20.61;56.08
45621;BME280;31345;51.522;10.702;2023-04-23T12:35:16;98179.13;;;20.70;54.42
45621;BME280;31345;51.522;10.702;2023-04-23T12:37:49;98182.91;;;20.83;57.00
45621;BME280;31345;51.522;10.702;2023-04-23T12:40:21;98181.19;;;20.38;54.01
45621;BME280;31345;51.522;10.702;2023-04-23T12:42:54;98166.53;;;20.05;54.33
45621;BME280;31345;51.522;10.702;2023-04-23T12:45:36;98168.44;;;20.12;56.32
45621;BME280;31345;51.522;10.702;2023-04-23T12:48:09;98171.78;;;20.36;55.24
45621;BME280;31345;51.522;10.702;2023-04-23T12:50:37;98169.53;;;20.17;55.59
45621;BME280;31345;51.522;10.702;2023-04-23T12:53:09;98169.66;;;19.94;54.72
45621;BME280;31345;51.522;10.702;2023-04-23T12:55:42;98157.59;;;20.06;52.57
45621;BME280;31345;51.522;10.702;2023-04-23T12:58:10;98164.34;;;20.09;56.33
45621;BME280;31345;51.522;10.702;2023-04-23T13:00:39;98159.16;;;19.86;54.01
45621;BME280;31345;51.522;10.702;2023-04-23T13:03:12;98147.72;;;19.85;53.16
45621;BME280;31345;51.522;10.702;2023-04-23T13:05:45;98149.16;;;19.42;52.62
45621;BME280;31345;51.522;10.702;2023-04-23T13:08:14;98148.94;;;19.83;57.41
45621;BME280;31345;51.522;10.702;2023-04-23T13:10:46;98144.09;;;20.08;53.32
45621;BME280;31345;51.522;10.702;2023-04-23T13:13:20;98150.19;;;20.24;55.99
45621;BME280;31345;51.522;10.702;2023-04-23T13:15:54;98141.56;;;20.00;53.91